Time;durP1;ratioP1;P1;durP2;ratioP2;P2;SDS_P1;SDS_P2;PMS_P1;PMS_P2;Temp;Humidity;BMP_temperature;BMP_pressure;BME280_temperature;BME280_humidity;BME280_pressure;Samples;Min_cycle;Max_cycle;Signal;HPM_P1;HPM_P2
2021/01/10 00:00:38;;;;;;;19.65;12.25;;;6.00;99.90;;;;;;5093200;28;20573;-81
2021/01/10 00:03:05;;;;;;;16.10;12.57;;;5.90;99.90;;;;;;5091039;28;20197;-82
2021/01/10 00:05:33;;;;;;;17.30;11.38;;;5.80;99.90;;;;;;5092889;28;20216;-81
2021/01/10 00:08:00;;;;;;;15.95;10.77;;;5.90;99.90;;;;;;5090021;28;20217;-81
2021/01/10 00:10:28;;;;;;;14.30;11.85;;;5.90;99.90;;;;;;5088812;28;20193;-81
2021/01/10 00:12:56;;;;;;;14.95;10.90;;;5.90;99.90;;;;;;5092091;28;20224;-82
2021/01/10 00:15:23;;;;;;;14.65;10.18;;;5.90;99.90;;;;;;5076492;28;20225;-80
2021/01/10 00:17:49;;;;;;;14.35;11.70;;;5.90;99.90;;;;;;5086482;28;20204;-81
2021/01/10 00:20:17;;;;;;;16.95;11.70;;;5.90;99.90;;;;;;5072370;28;20202;-81
2021/01/10 00:22:44;;;;;;;17.95;11.00;;;6.00;99.90;;;;;;5084558;28;20579;-79
2021/01/10 00:25:12;;;;;;;16.52;11.52;;;5.90;99.90;;;;;;5090942;28;20197;-79
2021/01/10 00:27:41;;;;;;;15.20;11.35;;;5.90;99.90;;;;;;5079714;28;20221;-79
2021/01/10 00:30:10;;;;;;;24.20;12.90;;;5.90;99.90;;;;;;5077097;28;20201;-80
2021/01/10 00:32:36;;;;;;;21.10;11.35;;;5.90;99.90;;;;;;5091514;28;20258;-79
2021/01/10 00:35:04;;;;;;;17.05;11.75;;;5.90;99.90;;;;;;5091240;28;20193;-79
2021/01/10 00:37:31;;;;;;;16.73;12.15;;;5.90;99.90;;;;;;5092050;28;20311;-79
2021/01/10 00:39:57;;;;;;;20.67;12.30;;;5.90;99.90;;;;;;5078586;28;20283;-79
2021/01/10 00:42:23;;;;;;;17.90;12.32;;;5.90;99.90;;;;;;5090545;28;20630;-79
2021/01/10 00:44:50;;;;;;;18.48;12.35;;;5.90;99.90;;;;;;5072250;28;20202;-80
2021/01/10 00:47:17;;;;;;;17.85;13.10;;;5.90;99.90;;;;;;5078071;28;20245;-79
2021/01/10 00:49:45;;;;;;;16.10;12.10;;;5.90;99.90;;;;;;5090209;28;20198;-80
2021/01/10 00:52:11;;;;;;;16.15;12.55;;;5.90;99.90;;;;;;5075579;28;20202;-79
2021/01/10 00:54:38;;;;;;;14.27;12.45;;;6.00;99.90;;;;;;5086250;28;20194;-79
2021/01/10 00:57:04;;;;;;;22.77;13.55;;;5.90;99.90;;;;;;5091212;28;20186;-79
2021/01/10 00:59:31;;;;;;;25.48;13.35;;;5.90;99.90;;;;;;5088232;28;20609;-80
2021/01/10 01:01:58;;;;;;;16.65;13.15;;;6.00;99.90;;;;;;5075852;28;20205;-79
2021/01/10 01:04:24;;;;;;;17.70;12.60;;;6.00;99.90;;;;;;5072162;28;20511;-80
2021/01/10 01:06:51;;;;;;;17.83;12.00;;;6.00;99.90;;;;;;5081536;28;20668;-79
2021/01/10 01:09:17;;;;;;;14.60;10.95;;;6.00;99.90;;;;;;5091993;28;20208;-80
2021/01/10 01:11:43;;;;;;;16.88;13.13;;;6.00;99.90;;;;;;5092113;28;20201;-79
2021/01/10 01:14:11;;;;;;;19.75;11.85;;;6.00;99.90;;;;;;5090455;28;20198;-79
2021/01/10 01:16:40;;;;;;;19.27;13.40;;;6.00;99.90;;;;;;5086327;28;20202;-80
2021/01/10 01:19:08;;;;;;;18.00;11.32;;;5.90;99.90;;;;;;5091273;28;20568;-80
2021/01/10 01:21:34;;;;;;;17.60;12.82;;;5.90;99.90;;;;;;5095766;28;20212;-79
2021/01/10 01:24:00;;;;;;;19.23;11.43;;;6.00;99.90;;;;;;5080094;28;20572;-80
2021/01/10 01:26:27;;;;;;;18.42;12.23;;;6.00;99.90;;;;;;5082522;28;20647;-81
2021/01/10 01:28:53;;;;;;;16.02;11.07;;;6.00;99.90;;;;;;5075259;28;20688;-79
2021/01/10 01:31:21;;;;;;;15.77;11.70;;;6.00;99.90;;;;;;5075773;28;20213;-79
2021/01/10 01:33:48;;;;;;;17.00;11.90;;;6.00;99.90;;;;;;5078543;28;20205;-80
2021/01/10 01:36:16;;;;;;;16.33;11.55;;;5.90;99.90;;;;;;5077337;28;20539;-79
2021/01/10 01:38:45;;;;;;;22.48;13.05;;;5.90;99.90;;;;;;5075153;28;20257;-79
2021/01/10 01:41:11;;;;;;;15.77;11.05;;;5.90;99.90;;;;;;5077443;28;20198;-80
2021/01/10 01:43:39;;;;;;;18.70;13.15;;;5.90;99.90;;;;;;5079770;28;20189;-81
2021/01/10 01:46:08;;;;;;;16.42;11.90;;;5.90;99.90;;;;;;5094357;28;20200;-80
2021/01/10 01:48:35;;;;;;;19.13;12.30;;;6.00;99.90;;;;;;5094866;28;20202;-80
2021/01/10 01:51:02;;;;;;;16.38;11.40;;;6.00;99.90;;;;;;5089199;28;20189;-80
2021/01/10 01:53:30;;;;;;;15.32;11.75;;;6.00;99.90;;;;;;5081830;28;20251;-80
2021/01/10 01:55:58;;;;;;;18.45;12.13;;;5.90;99.90;;;;;;5093823;28;20198;-80
2021/01/10 01:58:26;;;;;;;15.68;12.13;;;5.90;99.90;;;;;;5095191;28;20204;-80
2021/01/10 02:00:53;;;;;;;18.70;10.68;;;5.90;99.90;;;;;;5084770;28;20237;-80
2021/01/10 02:03:26;;;;;;;15.85;12.18;;;5.90;99.90;;;;;;5081915;28;20220;-81
2021/01/10 02:05:58;;;;;;;13.02;10.80;;;5.90;99.90;;;;;;5094031;28;20193;-80
2021/01/10 02:08:28;;;;;;;19.42;11.68;;;5.90;99.90;;;;;;5075874;28;20210;-81
2021/01/10 02:10:59;;;;;;;19.58;10.98;;;6.00;99.90;;;;;;5074971;28;20190;-81
2021/01/10 02:13:28;;;;;;;18.58;11.57;;;5.90;99.90;;;;;;5076354;28;20194;-81
2021/01/10 02:15:55;;;;;;;14.13;11.05;;;5.90;99.90;;;;;;5094644;28;20202;-80
2021/01/10 02:18:22;;;;;;;15.10;11.32;;;5.90;99.90;;;;;;5079391;28;20206;-81
2021/01/10 02:20:49;;;;;;;16.50;10.73;;;5.90;99.90;;;;;;5080529;28;20206;-80
2021/01/10 02:23:17;;;;;;;18.17;10.05;;;5.80;99.90;;;;;;5080955;28;20240;-80
2021/01/10 02:25:46;;;;;;;14.95;11.30;;;5.80;99.90;;;;;;5093915;28;20266;-81
2021/01/10 02:28:15;;;;;;;16.17;11.20;;;5.90;99.90;;;;;;5088435;28;20222;-81
2021/01/10 02:30:44;;;;;;;12.75;10.80;;;5.80;99.90;;;;;;5094769;28;20201;-81
2021/01/10 02:33:14;;;;;;;13.65;10.30;;;5.80;99.90;;;;;;5093994;28;20198;-81
2021/01/10 02:35:41;;;;;;;13.50;10.18;;;5.80;99.90;;;;;;5093242;28;20186;-80
2021/01/10 02:38:22;;;;;;;15.13;10.40;;;5.80;99.90;;;;;;5077091;28;20214;-81
2021/01/10 02:40:56;;;;;;;13.73;9.77;;;5.90;99.90;;;;;;5090804;28;20201;-81
2021/01/10 02:43:26;;;;;;;12.95;10.50;;;5.90;99.90;;;;;;5091138;28;20196;-80
2021/01/10 02:45:57;;;;;;;10.98;9.15;;;5.80;99.90;;;;;;5092562;28;20712;-81
2021/01/10 02:48:23;;;;;;;12.80;10.10;;;5.80;99.90;;;;;;5079313;28;20209;-80
2021/01/10 02:50:49;;;;;;;13.27;10.82;;;5.80;99.90;;;;;;5090636;28;20193;-80
2021/01/10 02:53:16;;;;;;;16.70;10.88;;;5.80;99.90;;;;;;5074267;28;20205;-80
2021/01/10 02:55:42;;;;;;;14.63;10.65;;;5.90;99.90;;;;;;5082562;28;20206;-80
2021/01/10 02:58:14;;;;;;;11.43;9.30;;;5.90;99.90;;;;;;5094056;28;20193;-81
2021/01/10 03:00:42;;;;;;;17.08;11.00;;;5.90;99.90;;;;;;5093663;28;20204;-81
2021/01/10 03:03:09;;;;;;;16.05;10.32;;;5.90;99.90;;;;;;5092080;28;20213;-81
2021/01/10 03:05:36;;;;;;;16.02;10.45;;;5.90;99.90;;;;;;5094319;28;20202;-81
2021/01/10 03:08:02;;;;;;;12.57;9.50;;;5.90;99.90;;;;;;5077957;28;20210;-81
2021/01/10 03:10:29;;;;;;;15.10;10.82;;;5.90;99.90;;;;;;5077411;28;20206;-81
2021/01/10 03:12:56;;;;;;;16.15;10.73;;;5.90;99.90;;;;;;5084017;28;20637;-81
2021/01/10 03:15:23;;;;;;;13.98;11.25;;;5.90;99.90;;;;;;5093806;28;20262;-81
2021/01/10 03:17:51;;;;;;;15.77;10.27;;;5.90;99.90;;;;;;5078015;28;20194;-81
2021/01/10 03:20:18;;;;;;;16.90;11.55;;;5.90;99.90;;;;;;5073614;28;20198;-80
2021/01/10 03:22:47;;;;;;;13.55;10.60;;;5.90;99.90;;;;;;5092213;28;20232;-79
2021/01/10 03:25:15;;;;;;;17.45;11.25;;;5.90;99.90;;;;;;5093179;28;20220;-79
2021/01/10 03:27:41;;;;;;;14.07;10.35;;;5.90;99.90;;;;;;5088324;28;20216;-79
2021/01/10 03:30:10;;;;;;;11.27;9.15;;;5.90;99.90;;;;;;5092923;28;20657;-80
2021/01/10 03:32:38;;;;;;;12.32;8.63;;;5.90;99.90;;;;;;5092233;28;20202;-79
2021/01/10 03:35:06;;;;;;;14.95;11.60;;;5.90;99.90;;;;;;5092801;28;20198;-79
2021/01/10 03:37:32;;;;;;;17.40;11.32;;;5.90;99.90;;;;;;5092869;28;20214;-79
2021/01/10 03:39:58;;;;;;;12.00;10.45;;;5.90;99.90;;;;;;5093391;28;20197;-79
2021/01/10 03:42:24;;;;;;;19.45;10.25;;;5.90;99.90;;;;;;5080261;28;20216;-79
2021/01/10 03:44:51;;;;;;;12.70;10.35;;;5.90;99.90;;;;;;5077149;28;20194;-78
2021/01/10 03:47:17;;;;;;;15.75;10.48;;;5.80;99.90;;;;;;5072955;28;20566;-79
2021/01/10 03:49:44;;;;;;;12.38;9.65;;;5.80;99.90;;;;;;5073215;28;20247;-78
2021/01/10 03:52:10;;;;;;;13.93;9.93;;;5.80;99.90;;;;;;5072672;28;20209;-79
2021/01/10 03:54:37;;;;;;;13.57;9.98;;;5.80;99.90;;;;;;5082464;28;20197;-78
2021/01/10 03:57:03;;;;;;;14.95;10.73;;;5.80;99.90;;;;;;5072842;28;20205;-79
2021/01/10 03:59:29;;;;;;;14.85;10.02;;;5.80;99.90;;;;;;5073016;28;20573;-79
2021/01/10 04:01:55;;;;;;;14.55;10.38;;;5.80;99.90;;;;;;5072353;28;20209;-79
2021/01/10 04:04:22;;;;;;;13.60;10.18;;;5.80;99.90;;;;;;5083494;28;20773;-79
2021/01/10 04:06:49;;;;;;;16.20;10.70;;;5.80;99.90;;;;;;5092684;28;20197;-79
2021/01/10 04:09:15;;;;;;;13.30;10.05;;;5.80;99.90;;;;;;5092832;28;20197;-78
2021/01/10 04:11:41;;;;;;;12.18;9.15;;;5.80;99.90;;;;;;5072665;28;20578;-80
2021/01/10 04:14:07;;;;;;;16.05;10.45;;;5.80;99.90;;;;;;5072682;28;20605;-81
2021/01/10 04:16:34;;;;;;;15.32;9.27;;;5.80;99.90;;;;;;5076222;28;20209;-79
2021/01/10 04:19:01;;;;;;;12.13;9.55;;;5.80;99.90;;;;;;5072304;28;20606;-80
2021/01/10 04:21:32;;;;;;;13.07;10.20;;;5.80;99.90;;;;;;5072250;28;20198;-79
2021/01/10 04:23:59;;;;;;;13.05;10.90;;;5.80;99.90;;;;;;5072457;28;20209;-78
2021/01/10 04:26:26;;;;;;;15.93;10.18;;;5.80;99.90;;;;;;5072579;28;20197;-79
2021/01/10 04:28:52;;;;;;;13.50;9.80;;;5.80;99.90;;;;;;5080250;28;20758;-80
2021/01/10 04:31:18;;;;;;;14.68;10.50;;;5.80;99.90;;;;;;5091084;28;20660;-77
2021/01/10 04:33:44;;;;;;;14.30;10.32;;;5.80;99.90;;;;;;5072676;28;20335;-80
2021/01/10 04:36:11;;;;;;;14.65;10.27;;;5.90;99.90;;;;;;5072525;28;20209;-80
2021/01/10 04:38:37;;;;;;;16.25;10.63;;;5.90;99.90;;;;;;5072446;28;20226;-79
2021/01/10 04:41:05;;;;;;;12.60;9.60;;;5.90;99.90;;;;;;5072504;28;20243;-77
2021/01/10 04:43:32;;;;;;;13.88;9.10;;;5.80;99.90;;;;;;5072580;28;20194;-80
2021/01/10 04:45:59;;;;;;;16.98;11.20;;;5.90;99.90;;;;;;5072163;28;20198;-78
2021/01/10 04:48:25;;;;;;;17.10;11.32;;;5.90;99.90;;;;;;5084701;28;20205;-77
2021/01/10 04:50:52;;;;;;;12.45;9.73;;;5.90;99.90;;;;;;5092054;28;20210;-77
2021/01/10 04:53:20;;;;;;;17.88;11.70;;;5.90;99.90;;;;;;5091731;28;20198;-77
2021/01/10 04:55:47;;;;;;;17.05;11.27;;;5.90;99.90;;;;;;5085739;28;20198;-77
2021/01/10 04:58:15;;;;;;;17.00;11.88;;;5.90;99.90;;;;;;5072074;28;20217;-76
2021/01/10 05:00:41;;;;;;;18.33;11.57;;;5.90;99.90;;;;;;5087240;28;20193;-77
2021/01/10 05:03:10;;;;;;;15.52;10.77;;;5.90;99.90;;;;;;5086890;28;20194;-77
2021/01/10 05:05:38;;;;;;;13.82;10.13;;;5.80;99.90;;;;;;5075804;28;20212;-77
2021/01/10 05:08:07;;;;;;;13.85;10.38;;;5.80;99.90;;;;;;5080325;28;20210;-77
2021/01/10 05:10:33;;;;;;;15.77;10.88;;;5.80;99.90;;;;;;5092109;28;20246;-77
2021/01/10 05:12:59;;;;;;;22.63;10.52;;;5.80;99.90;;;;;;5086838;28;20206;-77
2021/01/10 05:15:27;;;;;;;18.40;11.18;;;5.80;99.90;;;;;;5078953;28;20194;-77
2021/01/10 05:17:54;;;;;;;14.85;10.80;;;5.80;99.90;;;;;;5091820;28;20185;-78
2021/01/10 05:20:21;;;;;;;15.02;11.05;;;5.90;99.90;;;;;;5079774;28;20193;-79
2021/01/10 05:22:50;;;;;;;17.05;12.73;;;5.90;99.90;;;;;;5071746;28;20197;-79
2021/01/10 05:25:16;;;;;;;17.65;12.20;;;5.80;99.90;;;;;;5073342;28;20208;-77
2021/01/10 05:27:46;;;;;;;16.27;11.77;;;5.90;99.90;;;;;;5091624;28;20232;-79
2021/01/10 05:30:14;;;;;;;20.27;11.88;;;5.90;99.90;;;;;;5087973;28;20263;-79
2021/01/10 05:32:41;;;;;;;17.40;11.13;;;5.90;99.90;;;;;;5083267;28;20244;-80
2021/01/10 05:35:08;;;;;;;17.02;11.20;;;5.80;99.90;;;;;;5071530;28;20230;-79
2021/01/10 05:37:37;;;;;;;20.63;11.63;;;5.80;99.90;;;;;;5072177;28;20240;-80
2021/01/10 05:40:06;;;;;;;17.50;11.85;;;5.80;99.90;;;;;;5076389;28;20225;-79
2021/01/10 05:42:34;;;;;;;15.93;11.68;;;5.90;99.90;;;;;;5085281;28;20197;-79
2021/01/10 05:45:00;;;;;;;14.95;11.20;;;5.90;99.90;;;;;;5085593;28;20206;-80
2021/01/10 05:47:38;;;;;;;18.30;12.32;;;5.90;99.90;;;;;;5080078;28;20213;-80
2021/01/10 05:50:15;;;;;;;18.00;12.07;;;5.80;99.90;;;;;;5080459;28;20259;-81
2021/01/10 05:52:41;;;;;;;17.85;12.05;;;5.80;99.90;;;;;;5074994;28;20189;-81
2021/01/10 05:55:11;;;;;;;15.57;10.20;;;5.80;99.90;;;;;;5072603;28;20198;-78
2021/01/10 05:57:38;;;;;;;15.15;10.18;;;5.80;99.90;;;;;;5071176;28;20689;-79
2021/01/10 06:00:05;;;;;;;17.02;11.25;;;5.80;99.90;;;;;;5086633;28;20202;-78
2021/01/10 06:02:33;;;;;;;19.65;12.77;;;5.80;99.90;;;;;;5091763;28;20208;-78
2021/01/10 06:05:11;;;;;;;19.35;11.85;;;5.80;99.90;;;;;;5093102;28;20208;-80
2021/01/10 06:07:37;;;;;;;22.98;12.00;;;5.80;99.90;;;;;;5084046;28;20237;-79
2021/01/10 06:10:05;;;;;;;16.20;10.52;;;5.80;99.90;;;;;;5078872;28;20534;-81
2021/01/10 06:12:31;;;;;;;21.60;12.07;;;5.80;99.90;;;;;;5074765;28;20339;-81
2021/01/10 06:15:11;;;;;;;17.67;12.68;;;5.80;99.90;;;;;;5074659;28;20197;-80
2021/01/10 06:17:44;;;;;;;17.45;11.82;;;5.80;99.90;;;;;;5074801;28;20194;-81
2021/01/10 06:20:27;;;;;;;18.58;11.63;;;5.80;99.90;;;;;;5080523;28;20541;-80
2021/01/10 06:22:55;;;;;;;16.27;11.98;;;5.80;99.90;;;;;;5074774;28;20194;-80
2021/01/10 06:25:23;;;;;;;19.00;12.00;;;5.80;99.90;;;;;;5078582;28;20220;-79
2021/01/10 06:28:00;;;;;;;22.10;12.20;;;5.80;99.90;;;;;;5074723;28;20226;-79
2021/01/10 06:30:30;;;;;;;16.65;12.25;;;5.90;99.90;;;;;;5075979;28;20186;-79
2021/01/10 06:33:03;;;;;;;18.35;12.95;;;5.90;99.90;;;;;;5090768;28;20201;-79
2021/01/10 06:35:35;;;;;;;16.83;11.50;;;5.90;99.90;;;;;;5083831;28;20202;-79
2021/01/10 06:38:04;;;;;;;19.50;12.52;;;5.90;99.90;;;;;;5080535;28;20221;-79
2021/01/10 06:40:32;;;;;;;20.30;11.68;;;5.90;99.90;;;;;;5093160;28;20210;-79
2021/01/10 06:43:02;;;;;;;22.17;12.57;;;5.90;99.90;;;;;;5089696;28;20229;-79
2021/01/10 06:45:35;;;;;;;19.63;12.50;;;5.80;99.90;;;;;;5093570;28;20215;-79
2021/01/10 06:48:01;;;;;;;20.42;12.70;;;5.80;99.90;;;;;;5074431;28;20681;-79
2021/01/10 06:50:28;;;;;;;17.65;12.40;;;5.80;99.90;;;;;;5077375;28;20197;-79
2021/01/10 06:53:02;;;;;;;19.35;14.02;;;5.80;99.90;;;;;;5094701;28;20254;-78
2021/01/10 06:55:28;;;;;;;20.67;13.23;;;5.80;99.90;;;;;;5085056;28;20198;-79
2021/01/10 06:57:55;;;;;;;22.65;13.68;;;5.80;99.90;;;;;;5078093;28;20535;-79
2021/01/10 07:00:22;;;;;;;20.38;12.57;;;5.70;99.90;;;;;;5073795;28;20542;-78
2021/01/10 07:03:08;;;;;;;21.92;12.45;;;5.80;99.90;;;;;;5083617;28;20202;-78
2021/01/10 07:06:05;;;;;;;19.83;13.15;;;5.80;99.90;;;;;;5078320;28;20339;-79
2021/01/10 07:08:40;;;;;;;19.90;12.02;;;5.80;99.90;;;;;;5093614;28;20225;-77
2021/01/10 07:11:32;;;;;;;18.83;11.48;;;5.80;99.90;;;;;;5078150;28;20194;-78
2021/01/10 07:14:29;;;;;;;17.83;12.52;;;5.80;99.90;;;;;;5089868;28;20201;-79
2021/01/10 07:17:15;;;;;;;17.65;12.00;;;5.80;99.90;;;;;;5006228;28;20204;-78
2021/01/10 07:19:52;;;;;;;17.30;11.15;;;5.80;99.90;;;;;;5071489;28;20190;-78
2021/01/10 07:22:30;;;;;;;21.55;12.82;;;5.80;99.90;;;;;;5073671;28;20194;-78
2021/01/10 07:24:58;;;;;;;19.08;11.45;;;5.80;99.90;;;;;;5079105;28;20204;-78
2021/01/10 07:27:32;;;;;;;19.90;12.13;;;5.90;99.90;;;;;;5093608;28;20550;-77
2021/01/10 07:29:58;;;;;;;17.20;11.50;;;5.80;99.90;;;;;;5085804;28;20607;-78
2021/01/10 07:32:35;;;;;;;18.23;12.32;;;5.80;99.90;;;;;;5073327;28;20707;-78
2021/01/10 07:35:04;;;;;;;20.25;12.50;;;5.70;99.90;;;;;;5081671;28;20408;-78
2021/01/10 07:37:31;;;;;;;20.52;13.02;;;5.70;99.90;;;;;;5075217;28;20221;-78
2021/01/10 07:40:00;;;;;;;17.88;12.30;;;5.80;99.90;;;;;;5081817;28;20251;-78
2021/01/10 07:42:28;;;;;;;15.32;10.85;;;5.80;99.90;;;;;;5074676;28;20194;-78
2021/01/10 07:44:55;;;;;;;20.60;12.45;;;5.80;99.90;;;;;;5093176;28;20201;-79
2021/01/10 07:47:43;;;;;;;16.45;11.88;;;5.80;99.90;;;;;;5085848;28;20540;-78
2021/01/10 07:50:20;;;;;;;19.90;11.88;;;5.80;99.90;;;;;;5089507;28;20243;-78
2021/01/10 07:52:53;;;;;;;18.48;13.10;;;5.80;99.90;;;;;;5093351;28;20215;-78
2021/01/10 07:55:26;;;;;;;20.75;12.23;;;5.80;99.90;;;;;;5091221;28;20205;-78
2021/01/10 07:57:54;;;;;;;23.50;14.20;;;5.80;99.90;;;;;;5072831;28;20194;-78
2021/01/10 08:00:22;;;;;;;20.02;11.82;;;5.80;99.90;;;;;;5084610;28;20197;-78
2021/01/10 08:02:59;;;;;;;18.92;11.20;;;5.80;99.90;;;;;;5087655;28;20198;-78
2021/01/10 08:05:30;;;;;;;18.58;11.35;;;5.80;99.90;;;;;;5082173;28;20200;-77
2021/01/10 08:08:03;;;;;;;22.02;11.77;;;5.70;99.90;;;;;;5074026;28;20213;-78
2021/01/10 08:10:44;;;;;;;28.30;15.30;;;5.80;99.90;;;;;;5072710;28;20520;-77
2021/01/10 08:13:30;;;;;;;24.13;12.68;;;5.70;99.90;;;;;;5083389;28;20181;-77
2021/01/10 08:15:58;;;;;;;21.00;12.32;;;5.70;99.90;;;;;;5077137;28;20198;-78
2021/01/10 08:18:27;;;;;;;20.55;12.20;;;5.80;99.90;;;;;;5092159;28;20193;-78
2021/01/10 08:20:54;;;;;;;19.45;12.55;;;5.80;99.90;;;;;;5081842;28;20630;-78
2021/01/10 08:23:22;;;;;;;24.80;14.40;;;5.80;99.90;;;;;;5071565;28;20581;-79
2021/01/10 08:26:00;;;;;;;18.65;12.27;;;5.80;99.90;;;;;;5072518;28;20202;-79
2021/01/10 08:28:27;;;;;;;24.83;13.60;;;5.80;99.90;;;;;;5082357;28;20204;-78
2021/01/10 08:31:00;;;;;;;19.17;12.27;;;5.80;99.90;;;;;;5076597;28;20202;-78
2021/01/10 08:33:26;;;;;;;20.73;14.38;;;5.80;99.90;;;;;;5072616;28;20213;-79
2021/01/10 08:35:52;;;;;;;22.73;12.95;;;5.80;99.90;;;;;;5082264;28;20202;-79
2021/01/10 08:38:19;;;;;;;27.50;14.50;;;5.80;99.90;;;;;;5072022;28;20230;-79
2021/01/10 08:40:45;;;;;;;20.60;12.27;;;5.80;99.90;;;;;;5088438;28;20193;-78
2021/01/10 08:43:12;;;;;;;21.23;13.90;;;5.90;99.90;;;;;;5086156;28;20198;-79
2021/01/10 08:45:38;;;;;;;20.80;12.80;;;5.90;99.90;;;;;;5077307;28;20707;-78
2021/01/10 08:48:06;;;;;;;22.13;14.07;;;5.80;99.90;;;;;;5084639;28;20275;-78
2021/01/10 08:50:39;;;;;;;20.67;13.20;;;5.90;99.90;;;;;;5076519;28;20196;-79
2021/01/10 08:53:05;;;;;;;14.40;10.73;;;5.90;99.90;;;;;;5089150;28;20253;-78
2021/01/10 08:55:36;;;;;;;18.90;11.50;;;5.80;99.90;;;;;;5092469;28;20205;-77
2021/01/10 08:58:04;;;;;;;21.70;13.25;;;5.80;99.90;;;;;;5092457;28;20197;-77
2021/01/10 09:00:32;;;;;;;22.30;12.68;;;5.80;99.90;;;;;;5089202;28;20201;-80
2021/01/10 09:03:15;;;;;;;16.25;12.07;;;5.80;99.90;;;;;;5086755;28;20224;-78
2021/01/10 09:05:41;;;;;;;18.90;12.02;;;5.80;99.90;;;;;;5090785;28;20194;-79
2021/01/10 09:08:15;;;;;;;19.50;13.23;;;5.80;99.90;;;;;;5083961;28;20220;-79
2021/01/10 09:10:51;;;;;;;18.95;13.25;;;5.80;99.90;;;;;;5076430;28;20189;-79
2021/01/10 09:13:20;;;;;;;19.73;11.75;;;5.80;99.90;;;;;;5092119;28;20197;-79
2021/01/10 09:15:48;;;;;;;22.25;12.27;;;5.80;99.90;;;;;;5090308;28;20189;-78
2021/01/10 09:18:19;;;;;;;17.85;11.45;;;5.80;99.90;;;;;;5080885;28;20652;-79
2021/01/10 09:20:52;;;;;;;19.40;11.52;;;5.80;99.90;;;;;;5075900;28;20193;-78
2021/01/10 09:23:20;;;;;;;20.02;11.82;;;5.90;99.90;;;;;;5087927;28;20213;-78
2021/01/10 09:25:46;;;;;;;19.98;13.77;;;5.80;99.90;;;;;;5077494;28;20191;-78
2021/01/10 09:28:13;;;;;;;19.35;12.52;;;5.80;99.90;;;;;;5083959;28;20232;-78
2021/01/10 09:30:41;;;;;;;19.08;11.95;;;5.80;99.90;;;;;;5091956;28;20209;-78
2021/01/10 09:33:08;;;;;;;17.08;11.85;;;5.80;99.90;;;;;;5090281;28;20197;-78
2021/01/10 09:35:39;;;;;;;17.05;12.13;;;5.80;99.90;;;;;;5076394;28;20199;-79
2021/01/10 09:38:10;;;;;;;24.48;13.07;;;5.80;99.90;;;;;;5086748;28;20218;-80
2021/01/10 09:40:36;;;;;;;19.27;12.60;;;5.80;99.90;;;;;;5081033;28;20205;-79
2021/01/10 09:43:03;;;;;;;23.80;10.93;;;5.80;99.90;;;;;;5091222;28;20261;-80
2021/01/10 09:45:37;;;;;;;15.60;10.70;;;5.80;99.90;;;;;;5075107;28;20666;-79
2021/01/10 09:48:04;;;;;;;17.77;11.93;;;5.70;99.90;;;;;;5075117;28;20727;-80
2021/01/10 09:50:32;;;;;;;18.13;11.52;;;5.70;99.90;;;;;;5090415;28;20201;-80
2021/01/10 09:52:58;;;;;;;20.33;10.95;;;5.80;99.90;;;;;;5083207;28;20263;-79
2021/01/10 09:55:27;;;;;;;23.35;13.65;;;5.70;99.90;;;;;;5087331;28;20186;-80
2021/01/10 09:57:54;;;;;;;19.60;13.10;;;5.70;99.90;;;;;;5074992;28;20186;-80
2021/01/10 10:00:21;;;;;;;28.02;15.23;;;5.70;99.90;;;;;;5074940;28;20274;-81
2021/01/10 10:02:48;;;;;;;19.45;11.68;;;5.70;99.90;;;;;;5074887;28;20208;-79
2021/01/10 10:05:16;;;;;;;20.25;12.50;;;5.70;99.90;;;;;;5074928;28;20194;-79
2021/01/10 10:07:45;;;;;;;20.45;13.07;;;5.70;99.90;;;;;;5094885;28;20610;-79
2021/01/10 10:10:24;;;;;;;22.60;13.75;;;5.70;99.90;;;;;;5088383;28;20296;-79
2021/01/10 10:12:55;;;;;;;17.15;11.00;;;5.70;99.90;;;;;;5078848;28;20557;-79
2021/01/10 10:15:22;;;;;;;24.65;13.98;;;5.80;99.90;;;;;;5075847;28;20187;-79
2021/01/10 10:17:48;;;;;;;16.08;10.73;;;5.80;99.90;;;;;;5094996;28;20240;-79
2021/01/10 10:20:15;;;;;;;21.40;13.82;;;5.80;99.90;;;;;;5091440;28;20201;-79
2021/01/10 10:22:44;;;;;;;17.75;11.25;;;5.80;99.90;;;;;;5094764;28;20205;-79
2021/01/10 10:25:12;;;;;;;17.75;13.52;;;5.80;99.90;;;;;;5093424;28;20214;-79
2021/01/10 10:27:54;;;;;;;19.20;12.68;;;5.80;99.90;;;;;;5090246;28;20190;-79
2021/01/10 10:30:22;;;;;;;20.40;12.57;;;5.90;99.90;;;;;;5074256;28;20202;-79
2021/01/10 10:32:48;;;;;;;20.05;11.98;;;5.90;99.90;;;;;;5074071;28;20198;-79
2021/01/10 10:35:14;;;;;;;15.60;11.32;;;5.90;99.90;;;;;;5074584;28;20223;-79
2021/01/10 10:37:40;;;;;;;15.23;10.65;;;5.90;99.90;;;;;;5074632;28;20252;-79
2021/01/10 10:40:09;;;;;;;19.98;12.18;;;6.00;99.90;;;;;;5085281;28;20194;-79
2021/01/10 10:42:35;;;;;;;16.70;12.52;;;6.00;99.90;;;;;;5074254;28;20206;-79
2021/01/10 10:45:01;;;;;;;25.58;14.88;;;6.00;99.90;;;;;;5085391;28;20205;-79
2021/01/10 10:47:28;;;;;;;24.23;14.45;;;6.10;99.90;;;;;;5083087;28;20205;-79
2021/01/10 10:49:54;;;;;;;24.65;16.88;;;6.10;99.90;;;;;;5074424;28;20206;-79
2021/01/10 10:52:20;;;;;;;25.10;13.50;;;6.10;99.90;;;;;;5077160;28;20190;-79
2021/01/10 10:54:46;;;;;;;18.63;12.55;;;6.10;99.90;;;;;;5094175;28;20209;-79
2021/01/10 10:57:13;;;;;;;22.30;14.13;;;6.10;99.90;;;;;;5094098;28;20221;-79
2021/01/10 10:59:40;;;;;;;17.55;12.27;;;6.10;99.90;;;;;;5092141;28;20206;-79
2021/01/10 11:02:09;;;;;;;21.08;11.80;;;6.10;99.90;;;;;;5086327;28;20208;-79
2021/01/10 11:04:38;;;;;;;18.88;11.75;;;6.10;99.90;;;;;;5075866;28;20205;-79
2021/01/10 11:07:04;;;;;;;19.92;11.85;;;6.10;99.90;;;;;;5081639;28;20197;-72
2021/01/10 11:09:31;;;;;;;18.65;12.77;;;6.10;99.90;;;;;;5079342;28;20793;-81
2021/01/10 11:11:58;;;;;;;16.85;11.50;;;6.20;99.90;;;;;;5079174;28;20202;-76
2021/01/10 11:14:25;;;;;;;16.30;11.50;;;6.10;99.90;;;;;;5092999;28;20209;-76
2021/01/10 11:16:52;;;;;;;21.40;11.85;;;6.10;99.90;;;;;;5090539;28;20197;-76
2021/01/10 11:19:20;;;;;;;20.48;11.82;;;6.20;99.90;;;;;;5090549;28;20209;-76
2021/01/10 11:21:47;;;;;;;18.55;11.65;;;6.20;99.90;;;;;;5092244;28;20205;-76
2021/01/10 11:24:15;;;;;;;19.17;11.65;;;6.20;99.90;;;;;;5084522;28;20203;-76
2021/01/10 11:26:42;;;;;;;18.30;11.38;;;6.30;99.90;;;;;;5074581;28;20255;-76
2021/01/10 11:29:09;;;;;;;17.42;11.85;;;6.20;99.90;;;;;;5084102;28;20282;-74
2021/01/10 11:31:38;;;;;;;21.88;13.38;;;6.20;99.90;;;;;;5087996;28;20515;-75
2021/01/10 11:34:06;;;;;;;19.42;12.18;;;6.20;99.90;;;;;;5083212;28;20206;-75
2021/01/10 11:36:32;;;;;;;19.45;11.10;;;6.30;99.90;;;;;;5086552;28;20197;-73
2021/01/10 11:38:58;;;;;;;16.60;10.15;;;6.30;99.90;;;;;;5090822;28;20202;-74
2021/01/10 11:41:25;;;;;;;20.65;13.38;;;6.30;99.90;;;;;;5079948;28;20217;-77
2021/01/10 11:43:52;;;;;;;20.30;10.98;;;6.30;99.90;;;;;;5084161;28;20198;-77
2021/01/10 11:46:21;;;;;;;13.75;9.95;;;6.30;99.90;;;;;;5087681;28;20193;-75
2021/01/10 11:48:49;;;;;;;16.77;10.23;;;6.30;99.90;;;;;;5086957;28;20217;-77
2021/01/10 11:51:17;;;;;;;16.05;10.00;;;6.30;99.90;;;;;;5093210;28;20685;-75
2021/01/10 11:53:44;;;;;;;19.80;11.50;;;6.30;99.90;;;;;;5093031;28;20748;-75
2021/01/10 11:56:10;;;;;;;20.90;11.63;;;6.30;99.90;;;;;;5074666;28;20202;-76
2021/01/10 11:58:38;;;;;;;17.50;11.27;;;6.40;99.90;;;;;;5073475;28;20198;-75
2021/01/10 12:01:04;;;;;;;15.45;10.40;;;6.40;99.90;;;;;;5077452;28;20201;-76
2021/01/10 12:03:31;;;;;;;19.33;11.23;;;6.40;99.90;;;;;;5084664;28;20204;-75
2021/01/10 12:05:58;;;;;;;17.52;9.68;;;6.40;99.90;;;;;;5083428;28;20214;-76
2021/01/10 12:08:24;;;;;;;21.50;11.07;;;6.40;99.90;;;;;;5092615;28;20228;-77
2021/01/10 12:10:52;;;;;;;14.98;10.38;;;6.50;99.90;;;;;;5084343;28;20202;-76
2021/01/10 12:13:18;;;;;;;20.58;11.02;;;6.40;99.90;;;;;;5077255;28;20204;-76
2021/01/10 12:15:45;;;;;;;18.75;11.85;;;6.50;99.90;;;;;;5092905;28;20583;-76
2021/01/10 12:18:12;;;;;;;16.98;10.80;;;6.40;99.90;;;;;;5075513;28;20615;-76
2021/01/10 12:20:39;;;;;;;18.08;11.00;;;6.40;99.90;;;;;;5087606;28;20204;-76
2021/01/10 12:23:06;;;;;;;14.20;9.35;;;6.40;99.90;;;;;;5084674;28;20705;-77
2021/01/10 12:25:32;;;;;;;17.08;10.13;;;6.40;99.90;;;;;;5091856;28;20193;-77
2021/01/10 12:27:59;;;;;;;17.48;10.02;;;6.40;99.90;;;;;;5085465;28;20209;-76
2021/01/10 12:30:26;;;;;;;15.13;9.40;;;6.50;99.90;;;;;;5071876;28;20194;-77
2021/01/10 12:32:53;;;;;;;17.40;8.90;;;6.50;99.90;;;;;;5072048;28;20198;-76
2021/01/10 12:35:20;;;;;;;15.18;10.13;;;6.40;99.90;;;;;;5071880;28;20202;-76
2021/01/10 12:37:48;;;;;;;13.38;9.55;;;6.60;99.90;;;;;;5081405;28;20236;-77
2021/01/10 12:40:17;;;;;;;15.23;8.93;;;6.50;99.90;;;;;;5084709;28;20201;-78
2021/01/10 12:42:43;;;;;;;13.60;8.05;;;6.50;99.90;;;;;;5077385;28;20202;-77
2021/01/10 12:45:11;;;;;;;15.82;9.38;;;6.50;99.90;;;;;;5088938;28;20250;-77